• Join FlightAware (Why Join?)
  • Login
  • US Flag 
Rudolph Flight #1: Arrived! 
12:52AM EST


 

Airport Tracker/Info


-or-


 

Live Flight TrackerFlight Track Log ✈ SWA494 ✈ 08-Apr-2013 ✈ KSJC - KMDW

Flight Track Log - Related Links

Times and Time Zones

All times are in EDT time to prevent confusion due to time zone crossing. See the SWA494 flight status page for this flight to view local times or setup timezone preferences in your user account.

Time Position Orientation Groundspeed Altitude Reporting Facility
EDT Latitude Longitude Course Direction KTS MPH feet Rate Location/Type
01:29PM 37.4000 -121.9667 321° Northwest 162 186 2,200  Level Northern Cal TRACON
01:31PM 37.4017 -121.9053 88° East 243 280 5,000 1,680 Climbing Oakland Center
01:32PM 37.3475 -121.8481 140° Southeast 255 293 6,800 2,160 Climbing Oakland Center
01:33PM 37.2883 -121.8022 148° Southeast 276 318 9,500 2,280 Climbing Oakland Center
01:34PM 37.2514 -121.8811 240° Southwest 271 312 11,500 2,040 Climbing Oakland Center
01:35PM 37.3178 -121.9139 339° North 267 307 13,700 2,400 Climbing Oakland Center
01:36PM 37.3928 -121.9481 340° North 285 328 16,500 2,520 Climbing Oakland Center
01:37PM 37.4767 -121.9528 357° North 299 344 18,900 1,260 Climbing Oakland Center
01:38PM 37.5583 -121.9200 18° North 325 374 19,100 1,020 Climbing Oakland Center
01:39PM 37.6350 -121.8422 39° Northeast 351 404 21,000 1,500 Climbing Oakland Center
01:40PM 37.7281 -121.7478 39° Northeast 357 411 22,200 1,560 Climbing Oakland Center
01:41PM 37.8067 -121.6697 38° Northeast 361 415 24,200 2,220 Climbing Oakland Center
01:42PM 37.8881 -121.5875 39° Northeast 372 428 26,800 2,640 Climbing Oakland Center
01:43PM 37.9653 -121.5106 38° Northeast 359 413 29,600 2,520 Climbing Oakland Center
01:44PM 38.0325 -121.4414 39° Northeast 332 382 32,000 1,380 Climbing Oakland Center
01:45PM 38.1056 -121.3692 38° Northeast 333 383 32,500 540 Climbing Oakland Center
01:46PM 38.1825 -121.2906 39° Northeast 352 405 33,200 960 Climbing Oakland Center
01:47PM 38.2786 -121.1922 39° Northeast 370 426 34,500 840 Climbing Oakland Center
01:48PM 38.3608 -121.1086 39° Northeast 381 438 35,000 360 Climbing Oakland Center
01:49PM 38.4475 -121.0167 40° Northeast 410 472 35,300 420 Climbing Oakland Center
01:50PM 38.5156 -120.8803 57° Northeast 457 526 35,900 660 Climbing Oakland Center
01:51PM 38.5850 -120.7394 58° Northeast 468 539 36,700 540 Climbing Oakland Center
01:52PM 38.6539 -120.6006 58° Northeast 465 535 37,000 120 Climbing Oakland Center
01:53PM 38.7222 -120.4631 57° Northeast 460 529 37,000  Level Oakland Center
01:54PM 38.8039 -120.2989 57° Northeast 456 525 37,000  Level Oakland Center
01:55PM 38.8750 -120.1656 56° Northeast 453 521 37,000  Level Oakland Center
01:56PM 38.9600 -120.0581 45° Northeast 434 499 37,000  Level Oakland Center
01:57PM 39.0347 -119.9636 44° Northeast 435 501 37,000  Level Oakland Center
01:58PM 39.1386 -119.8311 45° Northeast 436 502 37,000  Level Oakland Center
02:00PM 39.2258 -119.7231 44° Northeast 434 499 37,000  Level Oakland Center
02:01PM 39.3081 -119.6100 47° Northeast 433 498 37,000  Level Oakland Center
02:02PM 39.3900 -119.4947 47° Northeast 434 499 37,000  Level Oakland Center
02:03PM 39.4711 -119.3803 47° Northeast 431 496 37,000  Level Oakland Center
02:04PM 39.5539 -119.2636 47° Northeast 435 501 37,000  Level Oakland Center
02:05PM 39.6386 -119.1458 47° Northeast 441 507 37,000  Level Oakland Center
02:06PM 39.7225 -119.0281 47° Northeast 441 507 37,000  Level Oakland Center
02:07PM 39.8061 -118.9078 48° Northeast 443 510 37,000  Level Oakland Center
02:08PM 39.8867 -118.7861 49° Northeast 442 509 37,000  Level Oakland Center
02:09PM 39.9369 -118.6308 67° East 456 525 37,000  Level Oakland Center
02:10PM 39.9878 -118.4761 67° East 461 531 37,000  Level Oakland Center
02:11PM 40.0369 -118.3219 67° East 459 528 37,000  Level Oakland Center
02:12PM 40.0869 -118.1661 67° East 463 533 37,000  Level Oakland Center
02:13PM 40.1461 -117.9800 67° East 462 532 37,000  Level Oakland Center
02:14PM 40.1950 -117.8239 68° East 463 533 37,000  Level Oakland Center
02:14PM 40.2231 -117.7344 68° East 464 534 37,000  Level Salt Lake Center
02:15PM 40.2678 -117.5839 69° East 463 533 37,000  Level Salt Lake Center
02:17PM 40.3025 -117.3986 76° East 469 540 37,000  Level Salt Lake Center
02:18PM 40.3344 -117.2372 75° East 476 548 37,000  Level Salt Lake Center
02:19PM 40.3700 -117.0497 76° East 476 548 37,000  Level Salt Lake Center
02:20PM 40.4028 -116.8706 76° East 475 547 37,000  Level Salt Lake Center
02:21PM 40.4336 -116.7153 75° East 474 545 37,000  Level Salt Lake Center
02:22PM 40.4681 -116.5267 76° East 476 548 37,000  Level Salt Lake Center
02:23PM 40.4972 -116.3642 77° East 478 550 37,000  Level Salt Lake Center
02:24PM 40.5308 -116.1783 77° East 471 542 37,000  Level Salt Lake Center
02:25PM 40.5614 -116.0161 76° East 474 545 37,000  Level Salt Lake Center
02:26PM 40.5878 -115.8564 78° East 468 539 37,000  Level Salt Lake Center
02:27PM 40.6197 -115.6689 77° East 469 540 37,000  Level Salt Lake Center
02:28PM 40.6486 -115.5111 76° East 466 536 37,000  Level Salt Lake Center
02:29PM 40.6808 -115.3244 77° East 467 537 37,000  Level Salt Lake Center
02:30PM 40.7083 -115.1633 77° East 470 541 37,000  Level Salt Lake Center
02:31PM 40.7433 -114.9764 76° East 471 542 37,000  Level Salt Lake Center
02:32PM 40.7706 -114.8142 77° East 472 543 37,000  Level Salt Lake Center
02:33PM 40.8017 -114.6258 78° East 470 541 37,000  Level Salt Lake Center
02:34PM 40.8275 -114.4650 78° East 469 540 37,000  Level Salt Lake Center
02:35PM 40.8531 -114.3103 78° East 465 535 37,000  Level Salt Lake Center
02:36PM 40.8858 -114.1111 78° East 465 535 37,000  Level Salt Lake Center
02:37PM 40.9131 -113.9456 78° East 463 533 37,000  Level Salt Lake Center
02:38PM 40.9394 -113.7786 78° East 465 535 37,000  Level Salt Lake Center
02:39PM 40.9653 -113.6122 78° East 464 534 37,000  Level Salt Lake Center
02:40PM 40.9906 -113.4450 79° East 464 534 37,000  Level Salt Lake Center
02:41PM 41.0172 -113.2778 78° East 465 535 37,000  Level Salt Lake Center
02:42PM 41.0431 -113.1114 78° East 463 533 37,000  Level Salt Lake Center
02:43PM 41.0736 -112.9094 79° East 466 536 37,000  Level Salt Lake Center
02:44PM 41.0986 -112.7403 79° East 467 537 37,000  Level Salt Lake Center
02:45PM 41.1244 -112.5706 79° East 469 540 37,000  Level Salt Lake Center
02:46PM 41.1486 -112.4003 79° East 469 540 37,000  Level Salt Lake Center
02:47PM 41.1731 -112.2294 79° East 469 540 37,000  Level Salt Lake Center
02:48PM 41.1981 -112.0583 79° East 470 541 37,000  Level Salt Lake Center
02:50PM 41.2219 -111.8853 80° East 469 540 37,000  Level Salt Lake Center
02:51PM 41.2469 -111.7117 79° East 471 542 37,000  Level Salt Lake Center
02:53PM 41.2997 -111.3300 79° East 475 547 37,000  Level Salt Lake Center
02:54PM 41.3222 -111.1564 80° East 475 547 37,000  Level Salt Lake Center
02:55PM 41.3461 -110.9836 80° East 476 548 37,000  Level Salt Lake Center
02:56PM 41.3681 -110.8158 80° East 476 548 37,000  Level Salt Lake Center
02:57PM 41.3933 -110.6219 80° East 478 550 37,000  Level Salt Lake Center
02:58PM 41.4139 -110.4561 81° East 475 547 37,000  Level Salt Lake Center
02:59PM 41.4392 -110.2594 80° East 482 555 37,000  Level Salt Lake Center
03:00PM 41.4603 -110.0922 80° East 481 554 37,000  Level Salt Lake Center
03:01PM 41.4822 -109.9247 80° East 481 554 37,000  Level Salt Lake Center
03:02PM 41.5053 -109.7300 81° East 477 549 37,000  Level Salt Lake Center
03:03PM 41.5258 -109.5636 81° East 475 547 37,000  Level Salt Lake Center
03:04PM 41.5486 -109.3700 81° East 472 543 37,000  Level Salt Lake Center
03:05PM 41.5681 -109.2019 81° East 471 542 37,000  Level Salt Lake Center
03:06PM 41.5878 -109.0331 81° East 471 542 37,000  Level Salt Lake Center
03:07PM 41.6044 -108.8364 83° East 472 543 37,000  Level Salt Lake Center
03:08PM 41.6172 -108.6692 84° East 473 544 37,000  Level Salt Lake Center
03:09PM 41.6314 -108.4742 84° East 472 543 37,000  Level Salt Lake Center
03:10PM 41.6433 -108.3056 85° East 474 545 37,000  Level Salt Lake Center
03:11PM 41.6564 -108.1364 84° East 477 549 37,000  Level Salt Lake Center
03:12PM 41.6683 -107.9658 85° East 478 550 37,000  Level Denver Center
03:13PM 41.6817 -107.7700 85° East 473 544 37,000  Level Denver Center
03:14PM 41.6931 -107.6014 85° East 477 549 37,000  Level Denver Center
03:15PM 41.7044 -107.4317 85° East 478 550 37,000  Level Denver Center
03:16PM 41.7175 -107.2322 85° East 483 556 37,000  Level Denver Center
03:17PM 41.7286 -107.0606 85° East 486 559 37,000 480 Level Denver Center
03:18PM 41.7411 -106.8594 85° East 487 560 38,100 960 Climbing Denver Center
03:19PM 41.7542 -106.6314 86° East 482 555 39,000 420 Climbing Denver Center
03:20PM 41.7653 -106.4475 85° East 484 557 39,000  Level Denver Center
03:22PM 41.7753 -106.2744 86° East 487 560 39,000  Level Denver Center
03:23PM 41.7858 -106.0728 86° East 487 560 39,000  Level Denver Center
03:24PM 41.7950 -105.9003 86° East 486 559 39,000  Level Denver Center
03:25PM 41.8042 -105.6989 86° East 486 559 39,000  Level Denver Center
03:26PM 41.8133 -105.5261 86° East 487 560 39,000  Level Denver Center
03:27PM 41.8228 -105.3256 86° East 486 559 39,000  Level Denver Center
03:28PM 41.8297 -105.1514 87° East 490 564 39,000  Level Denver Center
03:29PM 41.8383 -104.9803 86° East 486 559 39,000  Level Denver Center
03:30PM 41.8467 -104.7783 87° East 486 559 39,000  Level Denver Center
03:31PM 41.8536 -104.6064 87° East 485 558 39,000  Level Denver Center
03:32PM 41.8481 -104.4025 92° East 497 572 39,000  Level Denver Center
03:33PM 41.8369 -104.2314 95° East 486 559 39,000  Level Denver Center
03:34PM 41.8275 -104.0308 94° East 486 559 39,000  Level Denver Center
03:35PM 41.8181 -103.8583 94° East 487 560 39,000  Level Denver Center
03:36PM 41.8058 -103.6575 95° East 484 557 39,000  Level Denver Center
03:37PM 41.7964 -103.4842 94° East 487 560 39,000  Level Denver Center
03:38PM 41.7847 -103.2814 94° East 491 565 39,000  Level Denver Center
03:39PM 41.7747 -103.1369 95° East 490 564 39,000  Level Denver Center
03:40PM 41.7594 -102.9042 95° East 493 567 39,000  Level Denver Center
03:41PM 41.7489 -102.7286 95° East 494 568 39,000  Level Denver Center
03:42PM 41.7356 -102.5353 95° East 497 572 39,000  Level Denver Center
03:43PM 41.7242 -102.3583 95° East 499 574 39,000  Level Denver Center
03:44PM 41.7081 -102.1542 96° East 495 570 39,000  Level Denver Center
03:45PM 41.6975 -101.9775 95° East 497 572 39,000  Level Denver Center
03:46PM 41.6806 -101.7725 96° East 495 570 39,000  Level Denver Center
03:47PM 41.6681 -101.5969 95° East 494 568 39,000  Level Denver Center
03:48PM 41.6525 -101.3908 96° East 497 572 39,000  Level Denver Center
03:49PM 41.6389 -101.2156 96° East 496 571 39,000  Level Denver Center
03:50PM 41.6278 -101.0689 96° East 495 570 39,000  Level Denver Center
03:51PM 41.6083 -100.8397 96° East 486 559 39,000  Level Denver Center
03:52PM 41.5939 -100.6661 96° East 489 563 39,000  Level Denver Center
03:53PM 41.5761 -100.4622 97° East 493 567 39,000  Level Denver Center
03:55PM 41.5614 -100.2872 96° East 493 567 39,000  Level Denver Center
03:56PM 41.5464 -100.1128 96° East 493 567 39,000  Level Denver Center
03:57PM 41.5311 -99.9358 97° East 497 572 39,000  Level Denver Center
03:58PM 41.5122 -99.7408 97° East 501 577 39,000  Level Denver Center
03:59PM 41.4919 -99.5158 97° East 506 582 39,000  Level Denver Center
04:00PM 41.4847 -99.3244 93° East 515 593 39,000  Level Denver Center
04:01PM 41.4856 -99.1311 90° East 518 596 39,000  Level Denver Center
04:02PM 41.4864 -98.9383 90° East 517 595 39,000  Level Denver Center
04:03PM 41.4872 -98.7756 90° East 516 594 39,000  Level Minneapolis Center
04:04PM 41.4897 -98.5839 89° East 518 596 39,000  Level Minneapolis Center
04:05PM 41.4889 -98.3556 90° East 520 598 39,000  Level Minneapolis Center
04:06PM 41.4889 -98.1642 90° East 517 595 39,000  Level Minneapolis Center
04:07PM 41.4878 -97.9722 90° East 515 593 39,000  Level Minneapolis Center
04:08PM 41.4869 -97.7433 90° East 514 592 39,000  Level Minneapolis Center
04:09PM 41.4856 -97.5519 90° East 516 594 39,000  Level Minneapolis Center
04:10PM 41.4847 -97.3606 90° East 516 594 39,000  Level Minneapolis Center
04:11PM 41.4833 -97.1703 90° East 515 593 39,000  Level Minneapolis Center
04:12PM 41.4808 -96.9794 91° East 515 593 39,000  Level Minneapolis Center
04:13PM 41.4786 -96.7506 91° East 515 593 39,000  Level Minneapolis Center
04:14PM 41.4764 -96.5589 91° East 516 594 39,000  Level Minneapolis Center
04:15PM 41.4731 -96.3664 91° East 517 595 39,000  Level Minneapolis Center
04:16PM 41.4689 -96.1725 92° East 520 598 39,000  Level Minneapolis Center
04:17PM 41.4656 -95.9831 91° East 514 592 39,000  Level Minneapolis Center
04:18PM 41.4608 -95.7925 92° East 515 593 39,000  Level Minneapolis Center
04:19PM 41.4564 -95.5906 92° East 510 587 39,000  Level Minneapolis Center
04:20PM 41.4525 -95.4022 92° East 508 585 39,000  Level Minneapolis Center
04:21PM 41.4478 -95.2136 92° East 507 583 39,000  Level Minneapolis Center
04:22PM 41.4428 -95.0261 92° East 507 583 39,000  Level Minneapolis Center
04:23PM 41.4364 -94.8356 92° East 512 589 39,000  Level Minneapolis Center
04:24PM 41.4300 -94.6092 92° East 509 586 39,000  Level Minneapolis Center
04:25PM 41.4239 -94.4208 92° East 508 585 39,000  Level Minneapolis Center
04:27PM 41.4189 -94.2342 92° East 506 582 39,000  Level Minneapolis Center
04:28PM 41.4094 -94.0464 94° East 507 583 39,000  Level Minneapolis Center
04:29PM 41.4019 -93.8603 93° East 507 583 39,000  Level Minneapolis Center
04:30PM 41.3947 -93.6736 93° East 507 583 39,000  Level Minneapolis Center
04:31PM 41.3889 -93.5228 93° East 508 585 39,000 -540 Level Minneapolis Center
04:32PM 41.3783 -93.2586 93° East 511 588 37,900 -1,020 Descending Minneapolis Center
04:33PM 41.3700 -93.0717 93° East 508 585 37,000 -960 Descending Minneapolis Center
04:34PM 41.3617 -92.8767 93° East 520 598 36,000 -960 Descending Minneapolis Center
04:35PM 41.3517 -92.6789 94° East 532 612 35,100 -960 Descending Minneapolis Center
04:36PM 41.3419 -92.4858 94° East 530 610 34,100 -1,020 Descending Minneapolis Center
04:37PM 41.3331 -92.2992 94° East 519 597 33,000 -1,080 Descending Minneapolis Center
04:38PM 41.3233 -92.1108 94° East 504 580 32,000 -1,020 Descending Chicago Center
04:39PM 41.3100 -91.8928 95° East 500 575 31,000 -540 Descending Chicago Center
04:40PM 41.3017 -91.7125 93° East 495 570 31,000  Level Chicago Center
04:41PM 41.2908 -91.5347 95° East 492 566 31,000  Level Chicago Center
04:42PM 41.2797 -91.3544 95° East 493 567 31,000 -600 Level Chicago Center
04:43PM 41.2675 -91.1558 95° East 489 563 29,800 -1,920 Descending Chicago Center
04:44PM 41.2561 -90.9756 95° East 490 564 27,100 -2,160 Descending Chicago Center
04:45PM 41.2453 -90.7992 95° East 481 554 25,400 -1,380 Descending Chicago Center
04:46PM 41.2339 -90.6353 95° East 449 517 24,300 -1,020 Descending Chicago Center
04:47PM 41.2239 -90.4764 95° East 433 498 23,300 -660 Descending Chicago Center
04:48PM 41.2108 -90.2883 95° East 426 490 23,000 -300 Descending Chicago Center
04:49PM 41.1986 -90.1297 96° East 429 494 22,700 -1,260 Descending Chicago Center
04:50PM 41.1869 -89.9558 95° East 461 531 20,400 -2,340 Descending Chicago Center
04:51PM 41.1756 -89.7886 95° East 455 524 17,900 -2,400 Descending Chicago Center
04:52PM 41.1636 -89.6278 96° East 439 505 15,500 -1,740 Descending Chicago Center
04:53PM 41.1683 -89.4711 88° East 430 495 14,400 -1,020 Descending Chicago Center
04:54PM 41.1789 -89.3150 85° East 425 489 13,400 -1,080 Descending Chicago Center
04:55PM 41.1917 -89.1367 85° East 414 476 12,200 -1,020 Descending Chicago Center
04:56PM 41.2453 -89.0103 61° Northeast 403 464 11,300 -1,020 Descending Chicago Center
04:57PM 41.2992 -88.8889 59° Northeast 383 441 10,100 -780 Descending Chicago Center
04:59PM 41.3450 -88.7822 60° Northeast 337 388 9,700 -900 Descending Chicago Center
05:00PM 41.3878 -88.6839 60° Northeast 312 359 8,300 -1,200 Descending Chicago Center
05:01PM 41.4306 -88.5644 64° Northeast 300 345 7,200 -1,080 Descending Chicago Center
05:02PM 41.4572 -88.4608 71° East 297 342 6,100 -600 Descending Chicago Center
05:03PM 41.4853 -88.3583 70° East 296 341 6,000 -60 Descending Chicago Center
05:04PM 41.5133 -88.2564 70° East 293 337 6,000  Level Chicago Center
05:05PM 41.5419 -88.1528 70° East 293 337 6,000  Level Chicago Center
05:06PM 41.5708 -88.0475 70° East 296 341 6,000 -300 Level Chicago Center
05:07PM 41.5731 -87.9353 88° East 300 345 5,500 -1,020 Descending Chicago Center
05:08PM 41.5778 -87.8000 87° East 302 348 4,000 -1,260 Descending Chicago Center
05:09PM 41.6108 -87.7125 63° Northeast 286 329 3,000 -660 Descending Chicago Center
05:10PM 41.6500 -87.6667 41° Northeast 231 266 2,800 -300 Descending Chicago TRACON
05:11PM 41.7000 -87.6500 14° North 189 217 2,500 -480 Descending Chicago TRACON
05:12PM 41.7333 -87.6833 323° Northwest 142 163 1,900 -720 Descending Chicago TRACON
05:13PM 41.7667 -87.7167 323° Northwest 135 155 1,100 -840 Descending Chicago TRACON